sensor_id;sensor_type;location;lat;lon;timestamp;P1;durP1;ratioP1;P2;durP2;ratioP2
705;SDS011;21234;48.690;9.016;2023-04-15T00:02:13;8.13;;;3.13;;
705;SDS011;21234;48.690;9.016;2023-04-15T00:04:40;4.90;;;2.93;;
705;SDS011;21234;48.690;9.016;2023-04-15T00:07:07;5.50;;;3.47;;
705;SDS011;21234;48.690;9.016;2023-04-15T00:09:35;6.37;;;3.30;;
705;SDS011;21234;48.690;9.016;2023-04-15T00:12:02;4.33;;;3.30;;
705;SDS011;21234;48.690;9.016;2023-04-15T00:14:29;4.93;;;4.10;;
705;SDS011;21234;48.690;9.016;2023-04-15T00:16:56;3.80;;;3.40;;
705;SDS011;21234;48.690;9.016;2023-04-15T00:19:22;7.57;;;3.57;;
705;SDS011;21234;48.690;9.016;2023-04-15T00:21:49;4.57;;;3.20;;
705;SDS011;21234;48.690;9.016;2023-04-15T00:24:16;2.83;;;2.57;;
705;SDS011;21234;48.690;9.016;2023-04-15T00:26:44;4.07;;;3.20;;
705;SDS011;21234;48.690;9.016;2023-04-15T00:29:11;4.97;;;3.60;;
705;SDS011;21234;48.690;9.016;2023-04-15T00:31:38;3.50;;;3.20;;
705;SDS011;21234;48.690;9.016;2023-04-15T00:34:05;9.63;;;3.40;;
705;SDS011;21234;48.690;9.016;2023-04-15T00:36:31;4.97;;;3.17;;
705;SDS011;21234;48.690;9.016;2023-04-15T00:38:59;3.77;;;3.03;;
705;SDS011;21234;48.690;9.016;2023-04-15T00:41:26;3.97;;;2.87;;
705;SDS011;21234;48.690;9.016;2023-04-15T00:43:55;4.50;;;2.83;;
705;SDS011;21234;48.690;9.016;2023-04-15T00:46:22;4.03;;;3.10;;
705;SDS011;21234;48.690;9.016;2023-04-15T00:48:52;2.97;;;2.53;;
705;SDS011;21234;48.690;9.016;2023-04-15T00:51:20;6.87;;;3.30;;
705;SDS011;21234;48.690;9.016;2023-04-15T00:53:46;6.67;;;2.90;;
705;SDS011;21234;48.690;9.016;2023-04-15T00:56:13;6.70;;;3.30;;
705;SDS011;21234;48.690;9.016;2023-04-15T00:58:40;4.77;;;2.43;;
705;SDS011;21234;48.690;9.016;2023-04-15T01:01:08;4.20;;;2.90;;
705;SDS011;21234;48.690;9.016;2023-04-15T01:03:35;4.33;;;2.60;;
705;SDS011;21234;48.690;9.016;2023-04-15T01:06:02;4.30;;;3.17;;
705;SDS011;21234;48.690;9.016;2023-04-15T01:08:29;6.80;;;2.57;;
705;SDS011;21234;48.690;9.016;2023-04-15T01:10:56;3.90;;;2.87;;
705;SDS011;21234;48.690;9.016;2023-04-15T01:13:27;4.00;;;2.77;;
705;SDS011;21234;48.690;9.016;2023-04-15T01:15:55;7.43;;;4.40;;
705;SDS011;21234;48.690;9.016;2023-04-15T01:18:23;10.73;;;6.40;;
705;SDS011;21234;48.690;9.016;2023-04-15T01:20:51;9.40;;;6.50;;
705;SDS011;21234;48.690;9.016;2023-04-15T01:23:18;10.70;;;6.60;;
705;SDS011;21234;48.690;9.016;2023-04-15T01:25:47;5.43;;;4.30;;
705;SDS011;21234;48.690;9.016;2023-04-15T01:28:14;4.43;;;3.53;;
705;SDS011;21234;48.690;9.016;2023-04-15T01:30:41;5.00;;;3.13;;
705;SDS011;21234;48.690;9.016;2023-04-15T01:33:08;5.60;;;3.80;;
705;SDS011;21234;48.690;9.016;2023-04-15T01:35:35;5.37;;;2.80;;
705;SDS011;21234;48.690;9.016;2023-04-15T01:38:04;7.00;;;3.27;;
705;SDS011;21234;48.690;9.016;2023-04-15T01:40:32;8.00;;;3.80;;
705;SDS011;21234;48.690;9.016;2023-04-15T01:43:00;5.40;;;2.40;;
705;SDS011;21234;48.690;9.016;2023-04-15T01:45:27;4.47;;;3.20;;
705;SDS011;21234;48.690;9.016;2023-04-15T01:47:54;4.27;;;3.40;;
705;SDS011;21234;48.690;9.016;2023-04-15T01:50:21;3.97;;;2.70;;
705;SDS011;21234;48.690;9.016;2023-04-15T01:52:48;4.80;;;3.20;;
705;SDS011;21234;48.690;9.016;2023-04-15T01:55:14;3.70;;;2.57;;
705;SDS011;21234;48.690;9.016;2023-04-15T01:57:41;3.17;;;2.80;;
705;SDS011;21234;48.690;9.016;2023-04-15T02:00:09;8.67;;;3.40;;
705;SDS011;21234;48.690;9.016;2023-04-15T02:02:36;4.50;;;2.77;;
705;SDS011;21234;48.690;9.016;2023-04-15T02:05:04;3.30;;;3.00;;
705;SDS011;21234;48.690;9.016;2023-04-15T02:07:31;6.07;;;4.10;;
705;SDS011;21234;48.690;9.016;2023-04-15T02:09:57;9.77;;;4.33;;
705;SDS011;21234;48.690;9.016;2023-04-15T02:12:24;6.43;;;5.50;;
705;SDS011;21234;48.690;9.016;2023-04-15T02:14:51;5.03;;;4.20;;
705;SDS011;21234;48.690;9.016;2023-04-15T02:17:19;5.77;;;4.50;;
705;SDS011;21234;48.690;9.016;2023-04-15T02:19:46;9.13;;;4.70;;
705;SDS011;21234;48.690;9.016;2023-04-15T02:22:13;13.00;;;5.90;;
705;SDS011;21234;48.690;9.016;2023-04-15T02:24:42;8.23;;;5.17;;
705;SDS011;21234;48.690;9.016;2023-04-15T02:27:10;8.03;;;4.50;;
705;SDS011;21234;48.690;9.016;2023-04-15T02:29:36;5.00;;;4.00;;
705;SDS011;21234;48.690;9.016;2023-04-15T02:32:03;5.40;;;4.10;;
705;SDS011;21234;48.690;9.016;2023-04-15T02:34:32;4.77;;;3.63;;
705;SDS011;21234;48.690;9.016;2023-04-15T02:37:00;7.97;;;3.90;;
705;SDS011;21234;48.690;9.016;2023-04-15T02:39:27;6.87;;;4.57;;
705;SDS011;21234;48.690;9.016;2023-04-15T02:41:54;4.53;;;4.13;;
705;SDS011;21234;48.690;9.016;2023-04-15T02:44:23;5.67;;;3.33;;
705;SDS011;21234;48.690;9.016;2023-04-15T02:46:50;6.50;;;3.87;;
705;SDS011;21234;48.690;9.016;2023-04-15T02:49:18;9.63;;;3.47;;
705;SDS011;21234;48.690;9.016;2023-04-15T02:51:47;4.87;;;3.33;;
705;SDS011;21234;48.690;9.016;2023-04-15T02:54:14;5.10;;;3.60;;
705;SDS011;21234;48.690;9.016;2023-04-15T02:56:40;5.00;;;3.07;;
705;SDS011;21234;48.690;9.016;2023-04-15T02:59:07;3.60;;;3.03;;
705;SDS011;21234;48.690;9.016;2023-04-15T03:01:34;8.70;;;3.70;;
705;SDS011;21234;48.690;9.016;2023-04-15T03:04:00;6.30;;;3.50;;
705;SDS011;21234;48.690;9.016;2023-04-15T03:06:27;4.20;;;3.03;;
705;SDS011;21234;48.690;9.016;2023-04-15T03:08:55;7.27;;;2.93;;
705;SDS011;21234;48.690;9.016;2023-04-15T03:11:24;4.37;;;2.67;;
705;SDS011;21234;48.690;9.016;2023-04-15T03:13:51;4.67;;;3.07;;
705;SDS011;21234;48.690;9.016;2023-04-15T03:16:17;5.07;;;3.47;;
705;SDS011;21234;48.690;9.016;2023-04-15T03:18:45;4.67;;;3.53;;
705;SDS011;21234;48.690;9.016;2023-04-15T03:21:11;4.90;;;3.10;;
705;SDS011;21234;48.690;9.016;2023-04-15T03:23:38;5.37;;;3.07;;
705;SDS011;21234;48.690;9.016;2023-04-15T03:26:06;6.83;;;3.20;;
705;SDS011;21234;48.690;9.016;2023-04-15T03:28:33;4.93;;;3.70;;
705;SDS011;21234;48.690;9.016;2023-04-15T03:30:59;5.87;;;3.07;;
705;SDS011;21234;48.690;9.016;2023-04-15T03:33:26;4.17;;;2.60;;
705;SDS011;21234;48.690;9.016;2023-04-15T03:35:53;3.93;;;2.70;;
705;SDS011;21234;48.690;9.016;2023-04-15T03:38:19;5.90;;;3.20;;
705;SDS011;21234;48.690;9.016;2023-04-15T03:40:46;3.80;;;2.10;;
705;SDS011;21234;48.690;9.016;2023-04-15T03:43:14;8.53;;;2.73;;
705;SDS011;21234;48.690;9.016;2023-04-15T03:45:41;3.07;;;2.77;;
705;SDS011;21234;48.690;9.016;2023-04-15T03:48:07;4.83;;;2.50;;
705;SDS011;21234;48.690;9.016;2023-04-15T03:50:34;4.23;;;2.80;;
705;SDS011;21234;48.690;9.016;2023-04-15T03:53:01;6.03;;;3.23;;
705;SDS011;21234;48.690;9.016;2023-04-15T03:55:27;5.17;;;2.70;;
705;SDS011;21234;48.690;9.016;2023-04-15T03:57:54;7.97;;;2.90;;
705;SDS011;21234;48.690;9.016;2023-04-15T04:00:22;5.80;;;2.90;;
705;SDS011;21234;48.690;9.016;2023-04-15T04:02:49;3.90;;;3.07;;
705;SDS011;21234;48.690;9.016;2023-04-15T04:05:16;4.10;;;2.93;;
705;SDS011;21234;48.690;9.016;2023-04-15T04:07:42;4.83;;;2.43;;
705;SDS011;21234;48.690;9.016;2023-04-15T04:10:09;4.97;;;2.30;;
705;SDS011;21234;48.690;9.016;2023-04-15T04:12:36;5.73;;;3.70;;
705;SDS011;21234;48.690;9.016;2023-04-15T04:15:03;5.53;;;3.07;;
705;SDS011;21234;48.690;9.016;2023-04-15T04:17:32;4.40;;;2.43;;
705;SDS011;21234;48.690;9.016;2023-04-15T04:19:59;3.80;;;2.57;;
705;SDS011;21234;48.690;9.016;2023-04-15T04:22:25;3.00;;;2.70;;
705;SDS011;21234;48.690;9.016;2023-04-15T04:24:52;3.90;;;2.67;;
705;SDS011;21234;48.690;9.016;2023-04-15T04:27:18;4.07;;;2.93;;
705;SDS011;21234;48.690;9.016;2023-04-15T04:29:45;5.93;;;2.70;;
705;SDS011;21234;48.690;9.016;2023-04-15T04:32:13;3.97;;;2.77;;
705;SDS011;21234;48.690;9.016;2023-04-15T04:34:42;3.87;;;2.77;;
705;SDS011;21234;48.690;9.016;2023-04-15T04:37:08;5.47;;;2.77;;
705;SDS011;21234;48.690;9.016;2023-04-15T04:39:35;3.37;;;2.90;;
705;SDS011;21234;48.690;9.016;2023-04-15T04:42:01;5.50;;;3.33;;
705;SDS011;21234;48.690;9.016;2023-04-15T04:44:28;3.33;;;2.50;;
705;SDS011;21234;48.690;9.016;2023-04-15T04:46:55;3.00;;;2.70;;
705;SDS011;21234;48.690;9.016;2023-04-15T04:49:21;3.33;;;2.93;;
705;SDS011;21234;48.690;9.016;2023-04-15T04:51:49;2.87;;;2.53;;
705;SDS011;21234;48.690;9.016;2023-04-15T04:54:17;6.33;;;2.77;;
705;SDS011;21234;48.690;9.016;2023-04-15T04:56:43;3.40;;;2.20;;
705;SDS011;21234;48.690;9.016;2023-04-15T04:59:10;3.23;;;2.60;;
705;SDS011;21234;48.690;9.016;2023-04-15T05:01:37;5.47;;;2.77;;
705;SDS011;21234;48.690;9.016;2023-04-15T05:04:03;2.73;;;2.07;;
705;SDS011;21234;48.690;9.016;2023-04-15T05:06:31;5.20;;;2.43;;
705;SDS011;21234;48.690;9.016;2023-04-15T05:09:02;3.83;;;2.60;;
705;SDS011;21234;48.690;9.016;2023-04-15T05:11:28;3.03;;;2.50;;
705;SDS011;21234;48.690;9.016;2023-04-15T05:13:55;4.20;;;2.83;;
705;SDS011;21234;48.690;9.016;2023-04-15T05:16:23;2.50;;;2.30;;
705;SDS011;21234;48.690;9.016;2023-04-15T05:18:51;9.30;;;2.80;;
705;SDS011;21234;48.690;9.016;2023-04-15T05:21:18;5.30;;;2.50;;
705;SDS011;21234;48.690;9.016;2023-04-15T05:23:45;2.80;;;2.27;;
705;SDS011;21234;48.690;9.016;2023-04-15T05:26:13;2.87;;;2.47;;
705;SDS011;21234;48.690;9.016;2023-04-15T05:28:40;4.87;;;2.37;;
705;SDS011;21234;48.690;9.016;2023-04-15T05:31:07;5.77;;;2.70;;
705;SDS011;21234;48.690;9.016;2023-04-15T05:33:34;5.20;;;2.97;;
705;SDS011;21234;48.690;9.016;2023-04-15T05:36:01;2.83;;;2.27;;
705;SDS011;21234;48.690;9.016;2023-04-15T05:38:28;4.27;;;2.70;;
705;SDS011;21234;48.690;9.016;2023-04-15T05:40:55;4.37;;;2.77;;
705;SDS011;21234;48.690;9.016;2023-04-15T05:43:23;3.87;;;2.83;;
705;SDS011;21234;48.690;9.016;2023-04-15T05:45:50;8.83;;;2.93;;
705;SDS011;21234;48.690;9.016;2023-04-15T05:48:16;3.17;;;2.87;;
705;SDS011;21234;48.690;9.016;2023-04-15T05:50:43;3.13;;;2.23;;
705;SDS011;21234;48.690;9.016;2023-04-15T05:53:09;3.63;;;3.20;;
705;SDS011;21234;48.690;9.016;2023-04-15T05:55:36;4.77;;;2.57;;
705;SDS011;21234;48.690;9.016;2023-04-15T05:58:03;2.83;;;2.63;;
705;SDS011;21234;48.690;9.016;2023-04-15T06:00:31;5.40;;;3.53;;
705;SDS011;21234;48.690;9.016;2023-04-15T06:02:58;2.73;;;2.50;;
705;SDS011;21234;48.690;9.016;2023-04-15T06:05:25;4.53;;;2.67;;
705;SDS011;21234;48.690;9.016;2023-04-15T06:07:53;4.80;;;2.93;;
705;SDS011;21234;48.690;9.016;2023-04-15T06:10:20;4.00;;;2.67;;
705;SDS011;21234;48.690;9.016;2023-04-15T06:12:46;3.97;;;3.67;;
705;SDS011;21234;48.690;9.016;2023-04-15T06:15:13;5.63;;;3.60;;
705;SDS011;21234;48.690;9.016;2023-04-15T06:17:42;3.67;;;3.37;;
705;SDS011;21234;48.690;9.016;2023-04-15T06:20:09;4.37;;;3.50;;
705;SDS011;21234;48.690;9.016;2023-04-15T06:22:37;4.07;;;2.60;;
705;SDS011;21234;48.690;9.016;2023-04-15T06:25:04;4.27;;;2.90;;
705;SDS011;21234;48.690;9.016;2023-04-15T06:27:32;3.10;;;2.80;;
705;SDS011;21234;48.690;9.016;2023-04-15T06:29:58;6.70;;;3.97;;
705;SDS011;21234;48.690;9.016;2023-04-15T06:32:25;20.47;;;11.03;;
705;SDS011;21234;48.690;9.016;2023-04-15T06:34:53;12.03;;;7.33;;
705;SDS011;21234;48.690;9.016;2023-04-15T06:37:22;5.73;;;3.33;;
705;SDS011;21234;48.690;9.016;2023-04-15T06:39:48;4.80;;;3.20;;
705;SDS011;21234;48.690;9.016;2023-04-15T06:42:15;4.70;;;3.60;;
705;SDS011;21234;48.690;9.016;2023-04-15T06:44:42;5.30;;;3.63;;
705;SDS011;21234;48.690;9.016;2023-04-15T06:47:09;5.87;;;3.30;;
705;SDS011;21234;48.690;9.016;2023-04-15T06:49:37;3.70;;;3.40;;
705;SDS011;21234;48.690;9.016;2023-04-15T06:52:06;11.37;;;3.60;;
705;SDS011;21234;48.690;9.016;2023-04-15T06:54:32;6.63;;;3.77;;
705;SDS011;21234;48.690;9.016;2023-04-15T06:56:59;6.10;;;4.80;;
705;SDS011;21234;48.690;9.016;2023-04-15T06:59:26;5.00;;;3.43;;
705;SDS011;21234;48.690;9.016;2023-04-15T07:01:53;6.40;;;2.80;;
705;SDS011;21234;48.690;9.016;2023-04-15T07:04:19;3.83;;;3.37;;
705;SDS011;21234;48.690;9.016;2023-04-15T07:06:46;5.87;;;3.73;;
705;SDS011;21234;48.690;9.016;2023-04-15T07:09:14;5.40;;;3.90;;
705;SDS011;21234;48.690;9.016;2023-04-15T07:11:41;8.40;;;3.30;;
705;SDS011;21234;48.690;9.016;2023-04-15T07:14:07;3.73;;;3.23;;
705;SDS011;21234;48.690;9.016;2023-04-15T07:16:34;7.03;;;3.27;;
705;SDS011;21234;48.690;9.016;2023-04-15T07:19:00;5.40;;;3.37;;
705;SDS011;21234;48.690;9.016;2023-04-15T07:21:27;5.83;;;3.33;;
705;SDS011;21234;48.690;9.016;2023-04-15T07:23:54;6.93;;;4.10;;
705;SDS011;21234;48.690;9.016;2023-04-15T07:26:22;5.10;;;3.40;;
705;SDS011;21234;48.690;9.016;2023-04-15T07:28:49;7.23;;;2.87;;
705;SDS011;21234;48.690;9.016;2023-04-15T07:31:16;3.73;;;2.10;;
705;SDS011;21234;48.690;9.016;2023-04-15T07:33:43;6.33;;;2.30;;
705;SDS011;21234;48.690;9.016;2023-04-15T07:36:09;2.63;;;1.80;;
705;SDS011;21234;48.690;9.016;2023-04-15T07:38:36;3.13;;;2.23;;
705;SDS011;21234;48.690;9.016;2023-04-15T07:41:03;5.50;;;2.40;;
705;SDS011;21234;48.690;9.016;2023-04-15T07:43:31;4.20;;;2.27;;
705;SDS011;21234;48.690;9.016;2023-04-15T07:45:57;4.23;;;2.60;;
705;SDS011;21234;48.690;9.016;2023-04-15T07:48:24;5.37;;;2.83;;
705;SDS011;21234;48.690;9.016;2023-04-15T07:50:51;4.10;;;2.20;;
705;SDS011;21234;48.690;9.016;2023-04-15T07:53:18;2.83;;;2.37;;
705;SDS011;21234;48.690;9.016;2023-04-15T07:55:44;4.07;;;2.30;;
705;SDS011;21234;48.690;9.016;2023-04-15T07:58:11;2.70;;;2.13;;
705;SDS011;21234;48.690;9.016;2023-04-15T08:00:39;6.60;;;2.83;;
705;SDS011;21234;48.690;9.016;2023-04-15T08:03:06;3.80;;;2.13;;
705;SDS011;21234;48.690;9.016;2023-04-15T08:05:32;3.57;;;2.13;;
705;SDS011;21234;48.690;9.016;2023-04-15T08:07:59;8.77;;;6.30;;
705;SDS011;21234;48.690;9.016;2023-04-15T08:10:26;10.60;;;6.20;;
705;SDS011;21234;48.690;9.016;2023-04-15T08:12:54;2.90;;;2.37;;
705;SDS011;21234;48.690;9.016;2023-04-15T08:15:21;2.30;;;1.50;;
705;SDS011;21234;48.690;9.016;2023-04-15T08:17:49;4.30;;;2.80;;
705;SDS011;21234;48.690;9.016;2023-04-15T08:20:16;3.77;;;2.10;;
705;SDS011;21234;48.690;9.016;2023-04-15T08:22:43;3.20;;;1.97;;
705;SDS011;21234;48.690;9.016;2023-04-15T08:25:10;6.80;;;2.40;;
705;SDS011;21234;48.690;9.016;2023-04-15T08:27:37;5.03;;;2.20;;
705;SDS011;21234;48.690;9.016;2023-04-15T08:30:04;3.07;;;1.90;;
705;SDS011;21234;48.690;9.016;2023-04-15T08:32:31;2.70;;;1.60;;
705;SDS011;21234;48.690;9.016;2023-04-15T08:34:59;4.37;;;2.13;;
705;SDS011;21234;48.690;9.016;2023-04-15T08:37:26;3.50;;;2.23;;
705;SDS011;21234;48.690;9.016;2023-04-15T08:39:53;12.70;;;2.80;;
705;SDS011;21234;48.690;9.016;2023-04-15T08:42:22;3.80;;;1.77;;
705;SDS011;21234;48.690;9.016;2023-04-15T08:44:52;4.00;;;2.27;;
705;SDS011;21234;48.690;9.016;2023-04-15T08:47:20;2.87;;;1.73;;
705;SDS011;21234;48.690;9.016;2023-04-15T08:49:51;3.93;;;1.57;;
705;SDS011;21234;48.690;9.016;2023-04-15T08:52:22;1.80;;;1.47;;
705;SDS011;21234;48.690;9.016;2023-04-15T08:54:51;3.00;;;1.93;;
705;SDS011;21234;48.690;9.016;2023-04-15T08:57:20;2.33;;;2.13;;
705;SDS011;21234;48.690;9.016;2023-04-15T08:59:49;5.87;;;1.93;;
705;SDS011;21234;48.690;9.016;2023-04-15T09:02:16;1.40;;;1.30;;
705;SDS011;21234;48.690;9.016;2023-04-15T09:04:43;2.23;;;1.30;;
705;SDS011;21234;48.690;9.016;2023-04-15T09:07:09;1.70;;;1.40;;
705;SDS011;21234;48.690;9.016;2023-04-15T09:09:38;4.00;;;1.23;;
705;SDS011;21234;48.690;9.016;2023-04-15T09:12:06;1.57;;;1.33;;
705;SDS011;21234;48.690;9.016;2023-04-15T09:14:33;4.33;;;2.20;;
705;SDS011;21234;48.690;9.016;2023-04-15T09:17:00;3.47;;;1.73;;
705;SDS011;21234;48.690;9.016;2023-04-15T09:19:29;4.63;;;1.57;;
705;SDS011;21234;48.690;9.016;2023-04-15T09:21:58;1.37;;;1.27;;
705;SDS011;21234;48.690;9.016;2023-04-15T09:24:27;2.20;;;1.50;;
705;SDS011;21234;48.690;9.016;2023-04-15T09:27:03;5.67;;;1.57;;
705;SDS011;21234;48.690;9.016;2023-04-15T09:29:30;1.77;;;1.37;;
705;SDS011;21234;48.690;9.016;2023-04-15T09:31:57;6.07;;;2.33;;
705;SDS011;21234;48.690;9.016;2023-04-15T09:34:35;2.33;;;1.60;;
705;SDS011;21234;48.690;9.016;2023-04-15T09:37:02;2.50;;;1.40;;
705;SDS011;21234;48.690;9.016;2023-04-15T09:39:31;2.77;;;1.50;;
705;SDS011;21234;48.690;9.016;2023-04-15T09:42:12;1.40;;;1.30;;
705;SDS011;21234;48.690;9.016;2023-04-15T09:44:39;1.90;;;1.17;;
705;SDS011;21234;48.690;9.016;2023-04-15T09:47:06;2.50;;;1.07;;
705;SDS011;21234;48.690;9.016;2023-04-15T09:49:33;1.40;;;1.30;;
705;SDS011;21234;48.690;9.016;2023-04-15T09:52:00;3.47;;;2.47;;
705;SDS011;21234;48.690;9.016;2023-04-15T09:54:31;3.67;;;1.70;;
705;SDS011;21234;48.690;9.016;2023-04-15T09:57:03;1.67;;;1.50;;
705;SDS011;21234;48.690;9.016;2023-04-15T09:59:32;2.93;;;1.87;;
705;SDS011;21234;48.690;9.016;2023-04-15T10:01:59;3.50;;;1.50;;
705;SDS011;21234;48.690;9.016;2023-04-15T10:04:29;2.53;;;1.70;;
705;SDS011;21234;48.690;9.016;2023-04-15T10:07:01;3.33;;;1.50;;
705;SDS011;21234;48.690;9.016;2023-04-15T10:09:30;2.60;;;1.20;;
705;SDS011;21234;48.690;9.016;2023-04-15T10:11:57;1.70;;;1.30;;
705;SDS011;21234;48.690;9.016;2023-04-15T10:14:25;3.63;;;1.50;;
705;SDS011;21234;48.690;9.016;2023-04-15T10:16:56;2.33;;;1.50;;
705;SDS011;21234;48.690;9.016;2023-04-15T10:19:27;3.17;;;1.40;;
705;SDS011;21234;48.690;9.016;2023-04-15T10:21:57;2.90;;;1.53;;
705;SDS011;21234;48.690;9.016;2023-04-15T10:24:24;1.40;;;1.30;;
705;SDS011;21234;48.690;9.016;2023-04-15T10:26:51;3.30;;;1.53;;
705;SDS011;21234;48.690;9.016;2023-04-15T10:29:18;3.00;;;1.60;;
705;SDS011;21234;48.690;9.016;2023-04-15T10:31:45;2.03;;;1.90;;
705;SDS011;21234;48.690;9.016;2023-04-15T10:34:15;2.10;;;1.90;;
705;SDS011;21234;48.690;9.016;2023-04-15T10:36:43;1.97;;;1.37;;
705;SDS011;21234;48.690;9.016;2023-04-15T10:42:07;5.33;;;2.60;;
705;SDS011;21234;48.690;9.016;2023-04-15T10:44:35;2.03;;;1.80;;
705;SDS011;21234;48.690;9.016;2023-04-15T10:47:13;1.80;;;1.13;;
705;SDS011;21234;48.690;9.016;2023-04-15T10:49:49;1.80;;;1.50;;
705;SDS011;21234;48.690;9.016;2023-04-15T10:52:17;3.17;;;1.77;;
705;SDS011;21234;48.690;9.016;2023-04-15T10:54:48;3.17;;;1.90;;
705;SDS011;21234;48.690;9.016;2023-04-15T10:57:16;2.77;;;1.93;;
705;SDS011;21234;48.690;9.016;2023-04-15T11:00:00;3.70;;;2.07;;
705;SDS011;21234;48.690;9.016;2023-04-15T11:02:39;4.17;;;1.80;;
705;SDS011;21234;48.690;9.016;2023-04-15T11:05:08;3.00;;;2.30;;
705;SDS011;21234;48.690;9.016;2023-04-15T11:07:35;3.33;;;2.03;;
705;SDS011;21234;48.690;9.016;2023-04-15T11:10:09;4.00;;;2.37;;
705;SDS011;21234;48.690;9.016;2023-04-15T11:13:22;3.30;;;3.00;;
705;SDS011;21234;48.690;9.016;2023-04-15T11:15:54;4.13;;;2.90;;
705;SDS011;21234;48.690;9.016;2023-04-15T11:18:24;2.90;;;2.70;;
705;SDS011;21234;48.690;9.016;2023-04-15T11:20:54;3.00;;;2.70;;
705;SDS011;21234;48.690;9.016;2023-04-15T11:23:32;4.00;;;2.43;;
705;SDS011;21234;48.690;9.016;2023-04-15T11:26:00;3.57;;;2.67;;
705;SDS011;21234;48.690;9.016;2023-04-15T11:28:30;8.23;;;2.27;;
705;SDS011;21234;48.690;9.016;2023-04-15T11:31:02;3.70;;;2.40;;
705;SDS011;21234;48.690;9.016;2023-04-15T11:33:32;3.13;;;2.23;;
705;SDS011;21234;48.690;9.016;2023-04-15T11:36:00;3.67;;;1.63;;
705;SDS011;21234;48.690;9.016;2023-04-15T11:38:28;4.40;;;2.57;;
705;SDS011;21234;48.690;9.016;2023-04-15T11:40:57;5.27;;;2.20;;
705;SDS011;21234;48.690;9.016;2023-04-15T11:43:23;3.70;;;2.00;;
705;SDS011;21234;48.690;9.016;2023-04-15T11:45:51;1.60;;;1.40;;
705;SDS011;21234;48.690;9.016;2023-04-15T11:48:21;4.97;;;2.13;;
705;SDS011;21234;48.690;9.016;2023-04-15T11:50:53;3.23;;;2.33;;
705;SDS011;21234;48.690;9.016;2023-04-15T11:53:22;2.83;;;2.50;;
705;SDS011;21234;48.690;9.016;2023-04-15T11:55:50;3.13;;;2.40;;
705;SDS011;21234;48.690;9.016;2023-04-15T11:58:19;2.87;;;2.50;;
705;SDS011;21234;48.690;9.016;2023-04-15T12:00:48;2.30;;;2.10;;
705;SDS011;21234;48.690;9.016;2023-04-15T12:03:18;2.03;;;1.80;;
705;SDS011;21234;48.690;9.016;2023-04-15T12:06:10;3.67;;;2.33;;
705;SDS011;21234;48.690;9.016;2023-04-15T12:11:43;3.37;;;2.40;;
705;SDS011;21234;48.690;9.016;2023-04-15T12:14:12;4.77;;;2.40;;
705;SDS011;21234;48.690;9.016;2023-04-15T12:16:43;5.00;;;3.13;;
705;SDS011;21234;48.690;9.016;2023-04-15T12:19:12;4.50;;;3.17;;
705;SDS011;21234;48.690;9.016;2023-04-15T12:21:40;3.33;;;2.73;;
705;SDS011;21234;48.690;9.016;2023-04-15T12:24:10;3.07;;;2.30;;
705;SDS011;21234;48.690;9.016;2023-04-15T12:26:42;3.80;;;2.50;;
705;SDS011;21234;48.690;9.016;2023-04-15T12:29:10;3.90;;;2.57;;
705;SDS011;21234;48.690;9.016;2023-04-15T12:31:45;4.07;;;3.10;;
705;SDS011;21234;48.690;9.016;2023-04-15T12:34:12;5.33;;;3.03;;
705;SDS011;21234;48.690;9.016;2023-04-15T12:36:39;3.63;;;2.53;;
705;SDS011;21234;48.690;9.016;2023-04-15T12:39:06;3.97;;;3.57;;
705;SDS011;21234;48.690;9.016;2023-04-15T12:41:34;3.20;;;2.43;;
705;SDS011;21234;48.690;9.016;2023-04-15T12:44:01;4.43;;;3.03;;
705;SDS011;21234;48.690;9.016;2023-04-15T12:46:28;4.43;;;3.60;;
705;SDS011;21234;48.690;9.016;2023-04-15T12:48:54;8.03;;;3.10;;
705;SDS011;21234;48.690;9.016;2023-04-15T12:51:22;2.70;;;2.50;;
705;SDS011;21234;48.690;9.016;2023-04-15T12:53:49;3.20;;;2.97;;
705;SDS011;21234;48.690;9.016;2023-04-15T12:56:16;3.03;;;2.73;;
705;SDS011;21234;48.690;9.016;2023-04-15T12:58:44;3.33;;;3.03;;
705;SDS011;21234;48.690;9.016;2023-04-15T13:01:11;5.13;;;3.10;;
705;SDS011;21234;48.690;9.016;2023-04-15T13:03:38;3.77;;;3.47;;
705;SDS011;21234;48.690;9.016;2023-04-15T13:06:04;4.77;;;3.10;;
705;SDS011;21234;48.690;9.016;2023-04-15T13:08:32;3.40;;;3.13;;
705;SDS011;21234;48.690;9.016;2023-04-15T13:10:59;7.00;;;3.90;;
705;SDS011;21234;48.690;9.016;2023-04-15T13:13:26;3.80;;;2.77;;
705;SDS011;21234;48.690;9.016;2023-04-15T13:15:54;4.13;;;2.30;;
705;SDS011;21234;48.690;9.016;2023-04-15T13:18:21;4.03;;;3.20;;
705;SDS011;21234;48.690;9.016;2023-04-15T13:20:48;3.80;;;2.77;;
705;SDS011;21234;48.690;9.016;2023-04-15T13:23:14;3.67;;;3.27;;
705;SDS011;21234;48.690;9.016;2023-04-15T13:25:41;3.80;;;3.50;;
705;SDS011;21234;48.690;9.016;2023-04-15T13:28:09;5.83;;;3.37;;
705;SDS011;21234;48.690;9.016;2023-04-15T13:30:36;3.60;;;3.30;;
705;SDS011;21234;48.690;9.016;2023-04-15T13:33:04;3.83;;;2.60;;
705;SDS011;21234;48.690;9.016;2023-04-15T13:35:31;9.47;;;4.37;;
705;SDS011;21234;48.690;9.016;2023-04-15T13:37:58;4.30;;;2.93;;
705;SDS011;21234;48.690;9.016;2023-04-15T13:40:24;6.33;;;3.33;;
705;SDS011;21234;48.690;9.016;2023-04-15T13:42:51;6.20;;;4.30;;
705;SDS011;21234;48.690;9.016;2023-04-15T13:45:18;3.40;;;2.50;;
705;SDS011;21234;48.690;9.016;2023-04-15T13:47:45;3.97;;;2.90;;
705;SDS011;21234;48.690;9.016;2023-04-15T13:50:13;3.03;;;2.73;;
705;SDS011;21234;48.690;9.016;2023-04-15T13:52:40;3.40;;;2.20;;
705;SDS011;21234;48.690;9.016;2023-04-15T13:55:07;2.53;;;2.23;;
705;SDS011;21234;48.690;9.016;2023-04-15T13:57:34;4.60;;;2.83;;
705;SDS011;21234;48.690;9.016;2023-04-15T14:00:01;3.27;;;2.97;;
705;SDS011;21234;48.690;9.016;2023-04-15T14:02:28;2.83;;;2.60;;
705;SDS011;21234;48.690;9.016;2023-04-15T14:04:55;3.80;;;2.70;;
705;SDS011;21234;48.690;9.016;2023-04-15T14:07:23;3.23;;;2.47;;
705;SDS011;21234;48.690;9.016;2023-04-15T14:09:50;3.60;;;2.40;;
705;SDS011;21234;48.690;9.016;2023-04-15T14:12:16;3.27;;;2.70;;
705;SDS011;21234;48.690;9.016;2023-04-15T14:14:43;4.17;;;2.33;;
705;SDS011;21234;48.690;9.016;2023-04-15T14:17:10;2.50;;;1.63;;
705;SDS011;21234;48.690;9.016;2023-04-15T14:19:37;0.97;;;0.90;;
705;SDS011;21234;48.690;9.016;2023-04-15T14:22:04;2.80;;;1.17;;
705;SDS011;21234;48.690;9.016;2023-04-15T14:24:32;0.87;;;0.70;;
705;SDS011;21234;48.690;9.016;2023-04-15T14:26:59;1.00;;;0.60;;
705;SDS011;21234;48.690;9.016;2023-04-15T14:29:26;1.00;;;0.90;;
705;SDS011;21234;48.690;9.016;2023-04-15T14:31:53;1.17;;;1.03;;
705;SDS011;21234;48.690;9.016;2023-04-15T14:34:21;1.20;;;1.10;;
705;SDS011;21234;48.690;9.016;2023-04-15T14:36:49;1.30;;;1.10;;
705;SDS011;21234;48.690;9.016;2023-04-15T14:39:16;1.50;;;1.40;;
705;SDS011;21234;48.690;9.016;2023-04-15T14:41:44;3.33;;;1.20;;
705;SDS011;21234;48.690;9.016;2023-04-15T14:44:11;1.40;;;1.30;;
705;SDS011;21234;48.690;9.016;2023-04-15T14:46:37;2.50;;;1.80;;
705;SDS011;21234;48.690;9.016;2023-04-15T14:49:04;2.77;;;1.60;;
705;SDS011;21234;48.690;9.016;2023-04-15T14:51:31;4.00;;;3.70;;
705;SDS011;21234;48.690;9.016;2023-04-15T14:53:58;3.97;;;2.80;;
705;SDS011;21234;48.690;9.016;2023-04-15T14:56:25;3.40;;;2.50;;
705;SDS011;21234;48.690;9.016;2023-04-15T14:58:53;3.17;;;2.40;;
705;SDS011;21234;48.690;9.016;2023-04-15T15:01:20;2.40;;;2.17;;
705;SDS011;21234;48.690;9.016;2023-04-15T15:03:48;4.20;;;2.25;;
705;SDS011;21234;48.690;9.016;2023-04-15T15:06:15;2.73;;;1.80;;
705;SDS011;21234;48.690;9.016;2023-04-15T15:08:42;3.17;;;2.13;;
705;SDS011;21234;48.690;9.016;2023-04-15T15:11:08;5.07;;;3.63;;
705;SDS011;21234;48.690;9.016;2023-04-15T15:13:35;3.97;;;3.07;;
705;SDS011;21234;48.690;9.016;2023-04-15T15:16:03;3.70;;;2.80;;
705;SDS011;21234;48.690;9.016;2023-04-15T15:18:30;5.37;;;3.50;;
705;SDS011;21234;48.690;9.016;2023-04-15T15:20:57;4.33;;;3.60;;
705;SDS011;21234;48.690;9.016;2023-04-15T15:23:23;3.03;;;2.73;;
705;SDS011;21234;48.690;9.016;2023-04-15T15:25:50;3.17;;;2.87;;